Time;durP1;ratioP1;P1;durP2;ratioP2;P2;SDS_P1;SDS_P2;PMS_P1;PMS_P2;Temp;Humidity;BMP_temperature;BMP_pressure;BME280_temperature;BME280_humidity;BME280_pressure;Samples;Min_cycle;Max_cycle;Signal;HPM_P1;HPM_P2
2022/01/20 00:00:20;;;;;;;5.25;4.00;;;;;;;6.52;49.58;95879.00;5006100;28;20023;-66
2022/01/20 00:02:55;;;;;;;4.32;3.90;;;;;;;6.27;50.59;95878.91;4992776;28;20033;-66
2022/01/20 00:27:11;;;;;;;6.07;4.30;;;;;;;5.64;51.53;95881.44;4991822;28;20037;-66
2022/01/20 00:32:28;;;;;;;5.43;4.50;;;;;;;6.22;50.42;95877.03;4986351;28;20110;-67
2022/01/20 00:35:11;;;;;;;4.75;3.90;;;;;;;6.12;50.03;95877.75;4992378;28;20443;-66
2022/01/20 00:37:36;;;;;;;6.13;4.25;;;;;;;6.21;50.65;95870.16;4990598;28;20373;-66
2022/01/20 00:40:03;;;;;;;5.38;3.72;;;;;;;6.25;50.16;95876.50;4990191;28;20033;-66
2022/01/20 00:42:28;;;;;;;4.57;3.67;;;;;;;6.21;50.15;95865.66;4991719;28;20053;-66
2022/01/20 00:44:54;;;;;;;4.35;3.80;;;;;;;5.98;50.22;95858.16;4991703;28;20034;-67
2022/01/20 00:47:19;;;;;;;5.40;4.47;;;;;;;6.18;50.26;95871.44;4991635;28;20023;-66
2022/01/20 00:49:46;;;;;;;5.07;4.53;;;;;;;6.46;49.49;95867.59;4992374;28;20027;-67
2022/01/20 00:52:11;;;;;;;4.47;4.00;;;;;;;6.49;49.64;95861.78;4992321;28;20109;-66
2022/01/20 00:54:38;;;;;;;4.82;4.07;;;;;;;5.90;50.72;95877.09;4990718;28;20118;-66
2022/01/20 00:57:03;;;;;;;3.90;3.42;;;;;;;6.14;50.00;95877.50;4990390;28;20022;-66
2022/01/20 00:59:30;;;;;;;4.93;4.10;;;;;;;6.55;49.99;95881.09;4991638;28;20443;-66
2022/01/20 01:02:02;;;;;;;7.22;4.13;;;;;;;6.11;50.69;95870.09;4991776;28;20022;-66
2022/01/20 01:04:28;;;;;;;4.10;3.70;;;;;;;5.99;50.49;95891.44;4990661;28;20034;-66
2022/01/20 01:09:24;;;;;;;4.93;3.58;;;;;;;5.74;50.90;95869.09;4992204;28;20081;-67
2022/01/20 01:11:52;;;;;;;4.05;3.65;;;;;;;6.08;50.13;95865.31;4990524;28;20030;-67
2022/01/20 01:14:20;;;;;;;5.07;3.92;;;;;;;5.93;50.81;95895.09;4991131;28;20063;-66
2022/01/20 01:22:21;;;;;;;6.03;4.20;;;;;;;6.29;49.22;95887.34;4991935;28;20061;-66
2022/01/20 01:24:51;;;;;;;4.90;3.95;;;;;;;5.90;50.72;95890.31;4991537;28;20026;-67
2022/01/20 01:27:16;;;;;;;4.68;4.25;;;;;;;6.16;50.27;95878.84;4989489;28;20018;-67
2022/01/20 01:32:16;;;;;;;4.10;3.70;;;;;;;5.98;50.42;95901.19;4991161;28;20476;-66
2022/01/20 01:34:47;;;;;;;5.40;3.85;;;;;;;5.79;51.09;95884.19;4991244;28;20030;-66
2022/01/20 01:40:12;;;;;;;4.03;3.50;;;;;;;6.30;50.25;95879.19;4989879;28;20031;-66
2022/01/20 01:42:48;;;;;;;3.33;2.92;;;;;;;6.04;49.53;95869.53;4989438;28;20066;-66
2022/01/20 01:45:18;;;;;;;4.45;3.72;;;;;;;6.35;49.83;95881.06;4997290;28;20019;-66
2022/01/20 01:47:44;;;;;;;5.43;4.22;;;;;;;6.24;50.29;95859.88;4990420;28;20073;-66
2022/01/20 01:50:10;;;;;;;3.00;2.70;;;;;;;5.94;50.45;95867.66;4991119;28;20503;-66
2022/01/20 01:52:36;;;;;;;4.00;3.45;;;;;;;5.78;51.45;95881.78;4989644;28;20030;-66
2022/01/20 01:55:03;;;;;;;5.50;3.92;;;;;;;6.86;48.28;95873.25;4990910;28;20433;-66
2022/01/20 01:57:28;;;;;;;5.20;3.60;;;;;;;5.76;50.80;95870.69;4988642;28;20511;-66
2022/01/20 01:59:54;;;;;;;3.88;3.40;;;;;;;6.14;50.27;95872.22;4989213;28;20034;-66
2022/01/20 02:02:20;;;;;;;4.07;3.40;;;;;;;5.98;50.41;95834.38;4989475;28;20022;-67
2022/01/20 02:04:45;;;;;;;3.97;3.58;;;;;;;6.45;49.42;95860.75;4990633;28;20116;-66
2022/01/20 02:07:39;;;;;;;4.65;3.67;;;;;;;6.55;49.39;95838.81;5016161;23;20125;-62
2022/01/20 02:21:05;;;;;;;4.63;3.85;;;;;;;6.14;50.29;95873.03;5030379;28;20045;-62
2022/01/20 02:23:32;;;;;;;4.50;3.45;;;;;;;6.35;50.20;95871.28;5028417;28;20029;-65
2022/01/20 02:25:57;;;;;;;3.65;3.25;;;;;;;6.38;50.65;95862.81;5028310;28;20026;-62
2022/01/20 02:28:23;;;;;;;5.28;3.53;;;;;;;5.42;52.29;95844.59;5031748;28;20535;-65
2022/01/20 02:30:48;;;;;;;4.18;3.78;;;;;;;5.74;52.09;95821.59;5037525;28;20025;-64
2022/01/20 02:33:17;;;;;;;3.45;2.80;;;;;;;5.37;52.77;95849.84;5028025;28;20021;-64
2022/01/20 02:35:50;;;;;;;4.10;3.63;;;;;;;6.37;51.42;95847.22;5029434;28;20068;-62
2022/01/20 02:38:26;;;;;;;4.07;3.35;;;;;;;5.54;52.50;95862.91;5029291;28;20104;-63
2022/01/20 02:46:19;;;;;;;3.92;3.50;;;;;;;5.66;51.78;95824.69;5029427;28;20036;-63
2022/01/20 02:48:45;;;;;;;4.28;3.20;;;;;;;5.53;53.27;95856.00;5029474;28;20033;-63
2022/01/20 02:51:10;;;;;;;3.97;3.53;;;;;;;5.38;53.20;95799.47;5029663;28;20068;-63
2022/01/20 02:53:36;;;;;;;4.18;3.70;;;;;;;5.29;53.36;95801.00;5029186;28;20107;-63
2022/01/20 02:56:01;;;;;;;3.00;2.70;;;;;;;5.21;55.03;95825.97;5029172;28;20026;-63
2022/01/20 02:58:27;;;;;;;4.75;3.92;;;;;;;5.87;52.96;95793.13;5028584;28;20564;-63
2022/01/20 03:00:53;;;;;;;4.13;3.70;;;;;;;4.99;55.85;95787.59;5034823;28;20026;-63
2022/01/20 03:03:19;;;;;;;4.55;2.97;;;;;;;5.28;55.92;95838.19;5029660;28;20152;-63
2022/01/20 03:05:44;;;;;;;4.30;3.88;;;;;;;5.58;55.44;95827.00;5031874;28;20068;-63
2022/01/20 03:08:09;;;;;;;3.78;3.42;;;;;;;5.74;54.51;95824.22;5033334;28;20132;-63
2022/01/20 03:10:35;;;;;;;3.80;3.25;;;;;;;5.10;54.50;95791.88;5032430;28;20493;-63
2022/01/20 03:13:00;;;;;;;4.28;3.50;;;;;;;5.40;53.43;95776.25;5031739;28;20051;-64
2022/01/20 03:15:26;;;;;;;3.72;3.25;;;;;;;5.85;53.48;95803.16;5039852;28;20705;-63
2022/01/20 03:17:52;;;;;;;4.32;3.92;;;;;;;6.27;52.83;95811.00;5031077;28;20031;-63
2022/01/20 03:20:17;;;;;;;3.70;3.40;;;;;;;5.69;53.95;95789.88;5032099;28;20466;-64
2022/01/20 03:22:43;;;;;;;6.70;3.30;;;;;;;5.53;54.82;95804.06;5032145;28;20064;-64
2022/01/20 03:25:09;;;;;;;4.03;3.63;;;;;;;5.73;53.76;95795.41;5032070;28;20018;-64
2022/01/20 03:27:34;;;;;;;4.97;3.53;;;;;;;5.55;54.80;95794.03;5032601;28;20025;-64
2022/01/20 03:30:00;;;;;;;3.30;3.00;;;;;;;5.46;55.14;95790.28;5038118;28;20028;-64
2022/01/20 03:32:25;;;;;;;4.18;3.22;;;;;;;5.33;55.58;95774.91;5031727;28;20060;-64
2022/01/20 03:34:50;;;;;;;3.33;2.38;;;;;;;4.40;58.61;95783.94;5033118;28;20029;-64
2022/01/20 03:37:16;;;;;;;5.32;3.30;;;;;;;4.89;58.76;95827.84;5031135;28;20036;-64
2022/01/20 03:39:42;;;;;;;3.30;3.00;;;;;;;4.28;60.26;95795.63;5032729;28;20052;-64
2022/01/20 03:42:07;;;;;;;4.25;3.60;;;;;;;5.32;58.60;95839.25;5031694;28;20026;-65
2022/01/20 03:44:33;;;;;;;6.07;3.88;;;;;;;4.75;59.99;95789.75;5038040;28;20040;-62
2022/01/20 03:47:01;;;;;;;4.95;3.67;;;;;;;4.73;61.37;95826.13;5039891;28;20029;-65
2022/01/20 03:49:35;;;;;;;4.90;3.50;;;;;;;4.88;59.68;95795.41;5031534;28;20017;-63
2022/01/20 03:52:00;;;;;;;6.30;4.03;;;;;;;4.49;62.04;95815.09;5032420;28;20588;-62
2022/01/20 03:54:26;;;;;;;4.95;4.45;;;;;;;4.51;63.25;95848.06;5031535;28;20109;-63
2022/01/20 03:56:51;;;;;;;4.00;3.30;;;;;;;4.33;63.65;95856.28;5030145;28;20053;-66
2022/01/20 03:59:17;;;;;;;5.40;4.53;;;;;;;4.20;63.85;95840.84;5034215;28;20044;-64
2022/01/20 04:01:42;;;;;;;4.47;3.45;;;;;;;4.00;64.80;95794.81;5042411;28;20081;-64
2022/01/20 04:04:08;;;;;;;4.95;4.28;;;;;;;4.15;65.17;95852.13;5031977;28;20375;-63
2022/01/20 04:06:33;;;;;;;6.97;4.47;;;;;;;3.77;66.27;95847.69;5031390;28;20040;-64
2022/01/20 04:08:59;;;;;;;4.95;4.18;;;;;;;3.72;67.23;95834.47;5032421;28;20025;-64
2022/01/20 04:11:26;;;;;;;7.93;5.32;;;;;;;4.18;66.36;95856.88;5032318;28;20423;-63
2022/01/20 04:13:53;;;;;;;5.10;4.60;;;;;;;4.05;66.62;95842.28;5031568;28;20037;-64
2022/01/20 04:16:30;;;;;;;6.03;5.43;;;;;;;4.40;66.17;95855.06;5040390;28;20029;-63
2022/01/20 04:18:56;;;;;;;5.95;5.30;;;;;;;3.52;67.88;95806.84;5033569;28;20022;-63
2022/01/20 04:21:31;;;;;;;6.53;5.45;;;;;;;3.68;68.06;95860.44;5030734;28;20533;-62
2022/01/20 04:23:58;;;;;;;6.97;5.30;;;;;;;4.04;67.08;95859.09;5032061;28;20029;-63
2022/01/20 04:26:25;;;;;;;6.80;6.10;;;;;;;4.44;66.13;95852.69;5029977;28;20086;-61
2022/01/20 04:28:53;;;;;;;7.35;6.13;;;;;;;3.97;67.85;95852.41;5031335;28;20021;-64
2022/01/20 04:31:20;;;;;;;7.13;5.80;;;;;;;3.27;68.62;95788.09;5041990;28;20025;-63
2022/01/20 04:33:46;;;;;;;6.65;5.43;;;;;;;3.37;69.49;95819.78;5033250;28;20035;-61
2022/01/20 04:36:11;;;;;;;6.75;6.03;;;;;;;3.73;68.45;95831.59;5030321;28;20120;-63
2022/01/20 04:38:37;;;;;;;7.28;5.55;;;;;;;4.06;67.87;95853.59;5031322;28;20489;-63
2022/01/20 04:41:02;;;;;;;8.68;5.30;;;;;;;3.54;67.47;95775.06;5031780;28;20107;-62
2022/01/20 04:43:28;;;;;;;8.10;7.22;;;;;;;4.49;66.56;95842.22;5029878;28;20109;-61
2022/01/20 04:46:03;;;;;;;7.72;6.70;;;;;;;3.70;68.09;95794.47;5037140;28;20029;-62
2022/01/20 04:59:09;;;;;;;15.55;9.77;;;;;;;3.99;69.96;95853.75;5033376;28;20055;-61
2022/01/20 05:01:34;;;;;;;9.57;6.05;;;;;;;3.43;70.73;95821.47;5041379;28;20033;-61
2022/01/20 05:04:02;;;;;;;16.00;8.48;;;;;;;3.74;70.49;95851.63;5032029;28;20489;-61
2022/01/20 05:06:28;;;;;;;18.85;10.77;;;;;;;3.79;69.58;95812.22;5030385;28;20025;-63
2022/01/20 05:08:53;;;;;;;10.60;6.38;;;;;;;3.06;71.43;95803.56;5029879;28;20033;-63
2022/01/20 05:11:19;;;;;;;16.65;9.27;;;;;;;3.85;70.69;95842.00;5031180;28;20025;-61
2022/01/20 05:13:45;;;;;;;12.82;9.38;;;;;;;4.08;69.23;95843.59;5030559;28;20160;-63
2022/01/20 05:16:10;;;;;;;15.13;9.73;;;;;;;3.62;69.92;95799.09;5039927;28;20018;-61
2022/01/20 05:18:36;;;;;;;19.10;10.68;;;;;;;3.97;69.68;95821.63;5034661;28;20026;-63
2022/01/20 05:21:01;;;;;;;14.27;10.25;;;;;;;4.24;68.31;95815.59;5029563;28;20033;-63
2022/01/20 05:23:27;;;;;;;18.55;10.18;;;;;;;3.93;70.26;95846.84;5031064;28;20471;-63
2022/01/20 05:25:52;;;;;;;18.88;10.75;;;;;;;4.07;69.33;95834.13;5030614;28;20108;-63
2022/01/20 05:28:18;;;;;;;25.42;14.13;;;;;;;3.92;69.35;95808.41;5029008;28;20463;-63
2022/01/20 05:30:43;;;;;;;30.10;14.52;;;;;;;4.49;68.27;95825.63;5036815;28;20025;-62
2022/01/20 05:33:09;;;;;;;21.02;11.65;;;;;;;3.69;70.80;95830.50;5036063;28;20048;-61
2022/01/20 05:35:35;;;;;;;20.45;12.80;;;;;;;4.18;69.58;95841.09;5030592;28;20083;-61
2022/01/20 05:38:00;;;;;;;17.10;11.25;;;;;;;3.99;70.04;95826.63;5028655;28;20211;-62
2022/01/20 05:40:26;;;;;;;15.15;9.00;;;;;;;3.54;70.14;95791.63;5030483;28;20032;-62
2022/01/20 05:42:52;;;;;;;17.58;11.10;;;;;;;4.21;69.85;95845.09;5029061;28;20026;-63
2022/01/20 05:45:18;;;;;;;14.30;9.52;;;;;;;3.34;70.10;95744.03;5035330;28;20091;-63
2022/01/20 05:47:46;;;;;;;10.88;7.07;;;;;;;3.81;71.08;95846.16;5036310;28;20041;-62
2022/01/20 05:50:14;;;;;;;19.20;11.48;;;;;;;4.16;69.53;95793.16;5030408;28;20051;-62
2022/01/20 05:52:42;;;;;;;15.85;9.80;;;;;;;4.17;69.13;95835.03;5030269;28;20493;-62
2022/01/20 05:55:16;;;;;;;12.82;6.78;;;;;;;3.67;70.45;95802.81;5028820;28;20025;-63
2022/01/20 05:57:43;;;;;;;14.48;9.57;;;;;;;4.03;70.18;95840.91;5029882;28;20053;-62
2022/01/20 06:00:15;;;;;;;13.73;9.50;;;;;;;4.03;69.67;95849.59;5036629;28;20108;-62
2022/01/20 06:05:25;;;;;;;12.85;8.40;;;;;;;4.06;69.51;95849.13;5030547;28;20035;-63
2022/01/20 06:07:50;;;;;;;16.38;11.50;;;;;;;4.95;67.51;95822.34;5029604;28;20030;-62
2022/01/20 06:10:16;;;;;;;15.23;10.43;;;;;;;4.87;67.42;95832.59;5030326;28;20140;-62
2022/01/20 06:12:42;;;;;;;12.80;9.27;;;;;;;5.20;67.08;95828.88;5029937;28;20033;-63
2022/01/20 06:15:10;;;;;;;18.73;12.18;;;;;;;5.62;65.52;95836.81;5031479;28;20029;-62
2022/01/20 06:17:37;;;;;;;14.32;10.40;;;;;;;5.48;65.79;95833.03;5033137;28;20035;-62
2022/01/20 06:20:05;;;;;;;12.68;9.70;;;;;;;5.63;64.08;95817.31;5030061;28;20455;-63
2022/01/20 06:22:30;;;;;;;12.65;9.30;;;;;;;5.10;64.92;95829.59;5028630;28;20029;-60
2022/01/20 06:24:55;;;;;;;10.02;7.22;;;;;;;4.07;68.41;95848.06;5029755;28;20021;-61
2022/01/20 06:27:21;;;;;;;13.93;10.10;;;;;;;4.29;67.29;95826.19;5029255;28;20434;-61
2022/01/20 06:29:46;;;;;;;9.68;7.63;;;;;;;4.39;67.97;95855.28;5027197;28;20039;-60
2022/01/20 06:32:11;;;;;;;10.85;8.77;;;;;;;4.31;68.31;95863.63;5036457;28;20513;-61
2022/01/20 06:34:37;;;;;;;8.75;6.10;;;;;;;3.82;68.45;95811.72;5029411;28;20037;-61
2022/01/20 06:37:03;;;;;;;9.43;6.32;;;;;;;4.02;68.79;95858.53;5029049;28;20025;-63
2022/01/20 06:39:28;;;;;;;8.75;6.05;;;;;;;3.76;69.67;95848.72;5028779;28;20033;-60
2022/01/20 06:41:53;;;;;;;8.13;6.45;;;;;;;4.02;68.03;95826.94;5029726;28;20041;-60
2022/01/20 06:44:21;;;;;;;13.88;8.05;;;;;;;4.44;67.80;95837.69;5029307;28;20526;-59
2022/01/20 06:46:48;;;;;;;13.43;7.00;;;;;;;3.95;68.08;95839.50;5028633;28;20025;-62
2022/01/20 06:49:14;;;;;;;8.30;5.95;;;;;;;3.86;69.58;95848.88;5029713;28;20150;-62
2022/01/20 06:51:39;;;;;;;11.27;8.23;;;;;;;4.41;67.30;95811.84;5029433;28;20561;-61
2022/01/20 06:54:05;;;;;;;9.35;4.70;;;;;;;3.70;68.95;95820.78;5029205;28;20430;-61
2022/01/20 06:56:31;;;;;;;7.13;5.47;;;;;;;4.12;68.03;95845.50;5028943;28;20116;-62
2022/01/20 06:58:57;;;;;;;12.73;5.88;;;;;;;4.10;68.17;95841.53;5027618;28;20045;-62
2022/01/20 07:01:22;;;;;;;10.82;7.68;;;;;;;4.15;67.52;95815.28;5036115;28;20084;-61
2022/01/20 07:03:48;;;;;;;7.63;5.93;;;;;;;4.07;68.00;95847.28;5036139;28;20088;-61
2022/01/20 07:06:13;;;;;;;9.93;7.63;;;;;;;4.50;66.58;95816.66;5026243;28;20033;-59
2022/01/20 07:08:39;;;;;;;7.78;6.45;;;;;;;4.34;66.69;95824.41;5028980;28;20033;-60
2022/01/20 07:11:04;;;;;;;8.23;5.72;;;;;;;4.07;68.61;95850.72;5029050;28;20403;-61
2022/01/20 07:13:29;;;;;;;9.88;6.65;;;;;;;4.25;66.42;95817.19;5029441;28;20108;-62
2022/01/20 07:15:55;;;;;;;8.10;6.38;;;;;;;4.79;65.29;95844.34;5029056;28;20029;-61
2022/01/20 07:18:20;;;;;;;9.20;6.95;;;;;;;4.98;66.61;95821.06;5033460;28;20018;-61
2022/01/20 07:20:46;;;;;;;7.30;6.28;;;;;;;4.17;65.75;95776.31;5028016;28;20056;-62
2022/01/20 07:23:12;;;;;;;6.72;5.85;;;;;;;4.59;64.90;95805.44;5029389;28;20032;-61
2022/01/20 07:25:37;;;;;;;7.18;4.90;;;;;;;4.28;66.03;95838.56;5027855;28;20141;-61
2022/01/20 07:28:03;;;;;;;5.90;5.30;;;;;;;4.20;65.64;95809.22;5027018;28;20025;-59
2022/01/20 07:30:28;;;;;;;4.80;4.38;;;;;;;4.42;65.33;95802.13;5033603;28;20372;-59
2022/01/20 07:32:54;;;;;;;6.75;5.50;;;;;;;4.82;64.33;95811.44;5035892;28;20021;-61
2022/01/20 07:35:19;;;;;;;6.15;5.55;;;;;;;4.55;64.57;95799.06;5028913;28;20510;-63
2022/01/20 07:37:45;;;;;;;5.97;5.25;;;;;;;4.85;65.18;95866.28;5028233;28;20026;-62
2022/01/20 07:40:11;;;;;;;7.40;5.47;;;;;;;4.42;65.76;95817.91;5029239;28;20014;-61
2022/01/20 07:42:36;;;;;;;3.97;3.45;;;;;;;4.18;66.09;95835.81;5027250;28;20545;-58
2022/01/20 07:45:03;;;;;;;4.50;4.10;;;;;;;4.64;65.70;95857.38;5028708;28;20021;-60
2022/01/20 07:47:28;;;;;;;3.78;3.22;;;;;;;4.22;66.13;95847.47;5033400;28;20099;-61
2022/01/20 07:49:54;;;;;;;5.38;4.88;;;;;;;4.22;66.44;95797.44;5028498;28;20398;-61
2022/01/20 07:52:19;;;;;;;5.18;4.60;;;;;;;4.33;65.53;95841.25;5032480;28;20037;-61
2022/01/20 07:54:44;;;;;;;5.82;4.10;;;;;;;4.72;64.72;95879.88;5031316;28;20522;-61
2022/01/20 07:57:10;;;;;;;4.38;3.97;;;;;;;3.64;67.09;95775.97;5032069;28;20029;-61
2022/01/20 07:59:35;;;;;;;2.95;2.65;;;;;;;4.25;66.99;95880.38;5030803;28;20772;-60
2022/01/20 08:02:01;;;;;;;4.13;2.83;;;;;;;4.07;67.24;95882.28;5040398;28;20397;-60
2022/01/20 08:04:26;;;;;;;4.60;3.90;;;;;;;4.63;66.29;95847.91;5036570;28;20495;-60
2022/01/20 08:06:52;;;;;;;4.25;3.85;;;;;;;4.42;65.90;95850.31;5030488;28;20103;-60
2022/01/20 08:09:17;;;;;;;3.60;3.17;;;;;;;3.75;67.08;95826.09;5032362;28;20399;-60
2022/01/20 08:11:43;;;;;;;2.85;2.60;;;;;;;3.40;67.94;95845.59;5032234;28;20393;-60
2022/01/20 08:14:08;;;;;;;3.20;2.65;;;;;;;3.80;68.07;95876.16;5032058;28;20021;-60
2022/01/20 08:16:34;;;;;;;4.35;3.83;;;;;;;3.87;66.79;95779.41;5035463;28;20029;-60
2022/01/20 08:18:59;;;;;;;5.15;4.57;;;;;;;5.26;64.49;95877.19;5032750;28;20428;-60
2022/01/20 08:21:25;;;;;;;3.72;3.38;;;;;;;4.53;65.12;95885.47;5031919;28;20473;-61
2022/01/20 08:23:50;;;;;;;4.80;3.70;;;;;;;3.95;66.41;95843.97;5032198;28;20033;-61
2022/01/20 08:26:16;;;;;;;2.63;2.20;;;;;;;3.18;67.49;95782.47;5031583;28;20033;-60
2022/01/20 08:28:42;;;;;;;4.25;3.70;;;;;;;4.20;65.88;95835.56;5031981;28;20083;-60
2022/01/20 08:31:08;;;;;;;3.95;3.35;;;;;;;4.36;67.91;95905.84;5037983;28;20022;-59
2022/01/20 08:33:33;;;;;;;3.88;3.58;;;;;;;4.59;67.18;95897.66;5037005;28;20028;-60
2022/01/20 08:35:59;;;;;;;4.15;3.75;;;;;;;4.72;65.28;95835.06;5031509;28;20025;-60
2022/01/20 08:38:24;;;;;;;4.68;4.00;;;;;;;4.70;64.52;95815.00;5030901;28;20021;-60
2022/01/20 08:40:50;;;;;;;3.28;2.97;;;;;;;4.16;65.46;95849.25;5031864;28;20120;-60
2022/01/20 08:43:15;;;;;;;5.28;4.25;;;;;;;4.08;66.42;95860.19;5030614;28;20072;-60
2022/01/20 08:45:43;;;;;;;4.68;4.15;;;;;;;3.90;66.80;95790.25;5037849;28;20030;-60
2022/01/20 08:48:12;;;;;;;3.70;3.40;;;;;;;4.29;66.51;95884.94;5029946;28;20014;-60
2022/01/20 08:50:38;;;;;;;3.85;2.90;;;;;;;3.72;67.77;95855.50;5031531;28;20049;-60
2022/01/20 08:53:04;;;;;;;4.40;3.53;;;;;;;3.85;66.42;95827.03;5031411;28;20080;-59
2022/01/20 08:55:29;;;;;;;3.50;3.05;;;;;;;4.11;66.31;95891.31;5031563;28;20021;-60
2022/01/20 08:57:57;;;;;;;3.35;3.03;;;;;;;2.13;67.88;95596.75;5030917;28;20038;-59
2022/01/20 09:00:26;;;;;;;5.25;4.20;;;;;;;4.12;66.92;95834.97;5035209;28;20475;-60
2022/01/20 09:02:51;;;;;;;3.50;3.20;;;;;;;4.21;67.77;95963.56;5032545;28;20030;-59
2022/01/20 09:05:17;;;;;;;3.22;2.85;;;;;;;3.71;67.82;95912.59;5031520;28;20745;-60
2022/01/20 09:07:42;;;;;;;4.30;3.90;;;;;;;3.80;66.67;95818.28;5030521;28;20025;-59
2022/01/20 09:10:10;;;;;;;2.95;2.65;;;;;;;4.02;67.10;95913.81;5031021;28;20395;-60
2022/01/20 09:15:30;;;;;;;3.85;3.42;;;;;;;4.42;65.34;95881.13;5032233;28;20517;-60
2022/01/20 09:18:01;;;;;;;3.05;2.58;;;;;;;4.58;66.17;95938.22;5038561;28;20231;-60
2022/01/20 09:20:28;;;;;;;5.55;3.58;;;;;;;4.14;67.49;95903.97;5030846;28;20013;-60
2022/01/20 09:22:55;;;;;;;4.03;3.63;;;;;;;4.59;66.37;95910.81;5029560;28;20124;-60
2022/01/20 09:25:22;;;;;;;6.07;2.60;;;;;;;3.40;67.96;95840.34;5029770;28;20024;-60
2022/01/20 09:27:48;;;;;;;3.20;2.90;;;;;;;1.58;68.87;95613.94;5030206;28;20025;-59
2022/01/20 09:30:18;;;;;;;3.20;2.58;;;;;;;3.03;69.27;95811.94;5033151;28;20028;-60
2022/01/20 09:35:45;;;;;;;4.15;3.28;;;;;;;3.97;68.40;95923.50;5007102;28;20577;-60
2022/01/20 09:38:12;;;;;;;4.57;2.67;;;;;;;4.14;68.03;95980.31;5029986;28;20024;-60
2022/01/20 09:40:39;;;;;;;2.88;2.35;;;;;;;3.87;69.27;95972.31;5030593;28;20037;-60
2022/01/20 09:43:07;;;;;;;3.33;3.00;;;;;;;3.43;69.89;95947.69;5029544;28;20022;-60
2022/01/20 09:45:32;;;;;;;2.83;2.60;;;;;;;4.55;67.03;95980.84;5035865;28;20029;-61
2022/01/20 09:47:58;;;;;;;4.40;3.60;;;;;;;4.75;65.39;95992.69;5037822;28;20028;-60
2022/01/20 09:50:25;;;;;;;2.85;2.65;;;;;;;3.68;66.89;95891.22;5030531;28;20052;-60
2022/01/20 09:52:54;;;;;;;3.97;3.33;;;;;;;4.65;65.53;95949.34;5029485;28;20036;-60
2022/01/20 09:55:20;;;;;;;4.55;3.88;;;;;;;3.80;65.01;95808.53;5030541;28;20036;-60
2022/01/20 09:57:47;;;;;;;4.78;3.67;;;;;;;5.02;63.90;95917.09;5027923;28;20021;-60
2022/01/20 10:00:14;;;;;;;4.10;3.40;;;;;;;4.78;63.11;95811.16;5029870;28;20029;-61
2022/01/20 10:03:14;;;;;;;3.08;2.78;;;;;;;4.88;64.30;95956.22;5036908;28;20022;-62
2022/01/20 10:05:43;;;;;;;3.42;3.13;;;;;;;5.42;62.60;95947.47;5014764;28;20042;-62
2022/01/20 10:08:11;;;;;;;5.13;3.00;;;;;;;5.50;62.04;95960.22;5029555;28;20025;-62
2022/01/20 10:10:46;;;;;;;5.65;2.63;;;;;;;4.52;63.89;95930.50;5028943;28;20104;-62
2022/01/20 10:13:14;;;;;;;3.20;2.92;;;;;;;4.28;66.37;95983.41;5029659;28;20498;-62
2022/01/20 10:15:41;;;;;;;4.55;3.97;;;;;;;4.99;64.23;95975.56;5029419;28;20120;-61
2022/01/20 10:18:14;;;;;;;3.47;3.17;;;;;;;4.70;64.74;95951.25;5035066;28;20017;-61
2022/01/20 10:21:08;;;;;;;3.75;3.47;;;;;;;5.36;63.67;95969.59;5029714;28;20029;-61
2022/01/20 10:23:40;;;;;;;4.50;3.53;;;;;;;5.42;62.86;95923.75;5015712;28;20117;-61
2022/01/20 10:26:16;;;;;;;5.05;3.83;;;;;;;5.99;61.96;95960.13;5028287;28;20032;-61
2022/01/20 10:28:50;;;;;;;3.72;2.83;;;;;;;4.93;65.04;95971.28;5029637;28;20026;-59
2022/01/20 10:31:19;;;;;;;2.60;2.35;;;;;;;3.98;67.02;95957.47;5032214;28;20021;-66
2022/01/20 10:33:45;;;;;;;3.35;2.67;;;;;;;4.55;66.22;95959.78;5032501;28;20035;-65
2022/01/20 10:36:12;;;;;;;4.13;3.50;;;;;;;4.85;65.27;95929.53;5028854;28;20033;-63
2022/01/20 10:38:49;;;;;;;4.03;3.00;;;;;;;4.73;64.86;95927.06;5027893;28;20047;-63
2022/01/20 10:41:28;;;;;;;3.85;3.55;;;;;;;4.82;65.49;95945.88;5029374;28;20025;-63
2022/01/20 10:44:06;;;;;;;3.92;3.55;;;;;;;5.06;64.38;95923.44;5029764;28;20035;-63
2022/01/20 10:46:52;;;;;;;4.00;3.35;;;;;;;5.21;62.56;95902.47;5028193;28;20394;-66
2022/01/20 10:49:19;;;;;;;4.72;3.97;;;;;;;4.90;64.22;95903.25;5028388;28;20067;-59
2022/01/20 10:51:59;;;;;;;4.53;3.40;;;;;;;4.99;64.33;95928.13;5029382;28;20593;-59
2022/01/20 10:54:25;;;;;;;3.85;3.13;;;;;;;4.49;64.79;95923.88;5029412;28;20087;-61
2022/01/20 10:56:57;;;;;;;4.05;3.38;;;;;;;5.32;63.46;95948.19;5028664;28;20442;-61
2022/01/20 10:59:25;;;;;;;4.85;3.20;;;;;;;5.12;62.86;95911.91;5028194;28;20022;-63
2022/01/20 11:02:05;;;;;;;4.65;3.33;;;;;;;5.47;61.95;95929.06;5035715;28;20628;-61
2022/01/20 11:04:31;;;;;;;5.05;3.47;;;;;;;5.46;61.25;95849.09;5029900;28;20036;-58
2022/01/20 11:07:03;;;;;;;3.30;2.60;;;;;;;5.14;62.88;95916.91;5027063;28;20030;-59
2022/01/20 11:09:31;;;;;;;2.28;1.73;;;;;;;5.33;61.29;95906.81;5029272;28;20032;-59
2022/01/20 11:11:57;;;;;;;3.17;2.88;;;;;;;6.09;60.63;95941.69;5028133;28;20439;-59
2022/01/20 11:14:23;;;;;;;3.33;2.97;;;;;;;5.85;61.18;95962.34;5029144;28;20064;-59
2022/01/20 11:16:48;;;;;;;4.20;2.65;;;;;;;5.70;60.90;95959.59;5034618;28;20071;-59
2022/01/20 11:19:19;;;;;;;2.55;2.35;;;;;;;5.62;60.79;95942.38;5035807;28;20100;-61
2022/01/20 11:21:45;;;;;;;4.07;2.63;;;;;;;5.92;60.76;95941.03;5029479;28;20037;-63
2022/01/20 11:24:23;;;;;;;3.30;2.75;;;;;;;6.20;58.08;95874.66;5039767;28;20025;-64
2022/01/20 11:26:50;;;;;;;2.50;2.13;;;;;;;5.87;59.98;95943.63;5052353;28;20052;-64
2022/01/20 11:29:16;;;;;;;3.80;2.90;;;;;;;6.08;59.25;95897.81;5052930;28;20033;-64
2022/01/20 11:31:42;;;;;;;2.33;2.13;;;;;;;5.38;59.29;95889.16;5045922;28;20044;-64
2022/01/20 11:34:20;;;;;;;3.72;3.10;;;;;;;6.46;57.79;95898.53;5037991;28;20014;-65
2022/01/20 11:36:47;;;;;;;1.70;1.60;;;;;;;3.89;60.08;95808.91;5032080;28;20029;-64
2022/01/20 11:39:14;;;;;;;3.78;2.10;;;;;;;4.03;59.85;95733.78;5032396;28;20017;-64
2022/01/20 11:41:46;;;;;;;3.10;2.40;;;;;;;3.92;59.75;95750.50;5030965;28;20055;-64
2022/01/20 11:44:18;;;;;;;3.13;1.70;;;;;;;3.65;58.90;95658.38;5028753;28;20033;-64
2022/01/20 11:46:45;;;;;;;3.50;2.42;;;;;;;3.26;60.26;95620.88;5030930;28;20029;-63
2022/01/20 11:49:13;;;;;;;2.53;2.00;;;;;;;5.55;60.09;95906.69;5039108;28;20013;-64
2022/01/20 11:51:51;;;;;;;3.17;2.10;;;;;;;4.26;57.90;95534.41;5032299;28;20352;-64
2022/01/20 11:54:40;;;;;;;2.05;1.65;;;;;;;5.15;59.71;95900.84;5032575;28;20026;-65
2022/01/20 11:57:25;;;;;;;3.97;2.28;;;;;;;5.88;57.96;95885.25;5032415;28;20045;-64
2022/01/20 11:59:55;;;;;;;2.72;2.20;;;;;;;5.32;57.84;95797.03;5032245;28;20034;-64
2022/01/20 12:02:25;;;;;;;2.47;1.52;;;;;;;5.34;59.39;95895.19;5027093;28;20112;-63
2022/01/20 12:04:52;;;;;;;3.13;1.95;;;;;;;5.25;57.29;95765.63;5039135;28;20025;-63
2022/01/20 12:07:26;;;;;;;11.65;2.17;;;;;;;6.03;57.01;95926.03;5031315;28;20021;-63
2022/01/20 12:10:02;;;;;;;3.80;1.77;;;;;;;5.31;58.54;95909.66;5032394;28;20057;-64
2022/01/20 12:12:28;;;;;;;2.90;1.67;;;;;;;5.58;58.87;95904.38;5032426;28;20061;-64
2022/01/20 12:14:54;;;;;;;4.50;1.80;;;;;;;5.10;57.80;95792.69;5032218;28;20595;-63
2022/01/20 12:17:20;;;;;;;4.63;1.40;;;;;;;5.21;58.73;95812.00;5037506;28;20021;-64
2022/01/20 12:19:54;;;;;;;2.95;1.90;;;;;;;5.19;55.01;95666.41;5037137;28;20034;-64
2022/01/20 12:22:20;;;;;;;6.60;2.17;;;;;;;6.01;56.09;95804.03;5031977;28;20067;-64
2022/01/20 12:24:57;;;;;;;1.92;1.35;;;;;;;6.03;56.22;95857.38;5032070;28;20032;-64
2022/01/20 12:27:25;;;;;;;3.22;2.40;;;;;;;5.51;55.30;95723.53;5031428;28;20047;-64
2022/01/20 12:29:51;;;;;;;2.83;1.55;;;;;;;5.16;57.33;95814.59;5031725;28;20026;-64
2022/01/20 12:32:21;;;;;;;2.97;1.90;;;;;;;6.56;54.74;95850.19;5037942;28;20032;-64
2022/01/20 12:35:00;;;;;;;4.75;2.08;;;;;;;6.11;55.22;95819.94;5037285;28;20108;-64
2022/01/20 12:37:40;;;;;;;2.60;1.45;;;;;;;5.90;55.60;95848.06;5029943;28;20672;-64
2022/01/20 12:40:16;;;;;;;2.90;1.50;;;;;;;4.48;56.49;95687.06;5049561;28;20025;-63
2022/01/20 12:42:42;;;;;;;2.17;1.38;;;;;;;5.69;55.98;95850.59;5051541;28;20028;-64
2022/01/20 12:47:52;;;;;;;4.97;1.75;;;;;;;5.34;54.45;95747.47;5037555;28;20466;-64
2022/01/20 12:50:18;;;;;;;1.67;1.52;;;;;;;6.66;53.20;95853.66;5030225;28;20026;-64
2022/01/20 12:52:48;;;;;;;2.08;1.42;;;;;;;5.74;56.24;95839.25;5031485;28;20100;-63
2022/01/20 12:55:13;;;;;;;3.97;2.05;;;;;;;5.50;55.92;95764.97;5031820;28;20036;-63
2022/01/20 12:57:38;;;;;;;2.15;1.75;;;;;;;5.39;56.37;95797.63;5029605;28;20022;-64